createdAt,value
2023-01-03T00:16:04.051Z,2.70
2023-01-03T00:18:52.181Z,2.53
2023-01-03T00:21:19.278Z,2.72
2023-01-03T00:23:46.365Z,2.20
2023-01-03T00:26:22.041Z,1.70
2023-01-03T00:28:49.140Z,1.95
2023-01-03T00:31:23.178Z,1.70
2023-01-03T00:33:50.545Z,1.58
2023-01-03T00:36:17.783Z,1.50
2023-01-03T00:38:52.056Z,1.70
2023-01-03T00:41:19.868Z,1.30
2023-01-03T00:43:55.251Z,1.42
2023-01-03T00:46:22.448Z,1.50
2023-01-03T00:48:49.956Z,1.55
2023-01-03T00:53:51.552Z,1.70
2023-01-03T00:56:20.457Z,1.58
2023-01-03T00:58:54.046Z,1.60
2023-01-03T01:01:26.376Z,1.40
2023-01-03T01:04:02.101Z,1.52
2023-01-03T01:06:30.877Z,1.40
2023-01-03T01:09:05.058Z,1.65
2023-01-03T01:11:32.270Z,1.70
2023-01-03T01:14:06.100Z,1.50
2023-01-03T01:16:39.950Z,1.48
2023-01-03T01:19:13.609Z,1.30
2023-01-03T01:21:40.747Z,1.65
2023-01-03T01:24:11.557Z,1.50
2023-01-03T01:26:48.084Z,1.63
2023-01-03T01:29:15.811Z,1.90
2023-01-03T01:31:50.103Z,1.50
2023-01-03T01:34:17.478Z,1.67
2023-01-03T01:36:45.282Z,1.70
2023-01-03T01:39:21.137Z,1.65
2023-01-03T01:42:08.044Z,1.60
2023-01-03T01:44:51.071Z,1.60
2023-01-03T01:47:36.638Z,1.85
2023-01-03T01:50:20.191Z,2.05
2023-01-03T01:52:51.791Z,2.28
2023-01-03T01:55:27.098Z,2.28
2023-01-03T01:57:54.659Z,2.75
2023-01-03T02:00:22.046Z,3.22
2023-01-03T02:02:57.255Z,2.40
2023-01-03T02:05:25.211Z,3.53
2023-01-03T02:07:52.934Z,3.33
2023-01-03T02:10:31.079Z,3.40
2023-01-03T02:15:47.146Z,4.22
2023-01-03T02:18:36.139Z,5.00
2023-01-03T02:21:22.149Z,4.70
2023-01-03T02:24:07.782Z,4.68
2023-01-03T02:27:00.131Z,4.90
2023-01-03T02:29:45.779Z,4.60
2023-01-03T02:32:22.102Z,4.55
2023-01-03T02:34:51.972Z,4.70
2023-01-03T02:37:44.079Z,4.47
2023-01-03T02:40:29.067Z,3.80
2023-01-03T02:43:09.143Z,4.15
2023-01-03T02:46:01.151Z,3.80
2023-01-03T02:48:34.973Z,3.60
2023-01-03T02:51:11.117Z,3.38
2023-01-03T02:53:47.279Z,3.60
2023-01-03T02:56:24.123Z,3.83
2023-01-03T02:58:53.677Z,3.78
2023-01-03T03:01:28.181Z,4.15
2023-01-03T03:03:55.483Z,3.63
2023-01-03T03:06:29.076Z,3.50
2023-01-03T03:08:56.252Z,3.63
2023-01-03T03:11:49.083Z,3.17
2023-01-03T03:14:25.847Z,3.33
2023-01-03T03:17:01.119Z,3.58
2023-01-03T03:19:55.322Z,3.55
2023-01-03T03:23:01.103Z,3.60
2023-01-03T03:25:29.668Z,3.60
2023-01-03T03:28:27.073Z,3.20
2023-01-03T03:30:57.275Z,3.05
2023-01-03T03:33:32.089Z,3.47
2023-01-03T03:36:09.115Z,3.15
2023-01-03T03:38:45.104Z,3.22
2023-01-03T03:41:37.808Z,3.10
2023-01-03T03:45:00.882Z,2.83
2023-01-03T03:47:37.892Z,2.60
2023-01-03T03:50:15.177Z,2.40
2023-01-03T03:52:44.791Z,2.63
2023-01-03T03:55:14.774Z,2.38
2023-01-03T03:57:56.276Z,2.58
2023-01-03T04:00:25.968Z,2.50
2023-01-03T04:03:01.203Z,3.00
2023-01-03T04:05:30.161Z,2.22
2023-01-03T04:08:04.109Z,2.50
2023-01-03T04:10:37.253Z,2.50
2023-01-03T04:13:11.352Z,2.50
2023-01-03T04:15:38.496Z,2.40
2023-01-03T04:18:19.101Z,2.28
2023-01-03T04:20:59.148Z,2.80
2023-01-03T04:23:26.368Z,2.25
2023-01-03T04:25:53.701Z,2.45
2023-01-03T04:28:27.099Z,2.47
2023-01-03T04:30:54.214Z,2.45
2023-01-03T04:33:28.138Z,2.50
2023-01-03T04:35:55.510Z,2.33
2023-01-03T04:38:22.613Z,2.53
2023-01-03T04:40:56.526Z,2.40
2023-01-03T04:43:42.172Z,2.58
2023-01-03T04:46:16.281Z,2.67
2023-01-03T04:48:43.413Z,2.70
2023-01-03T04:51:10.534Z,2.60
2023-01-03T04:53:44.123Z,2.75
2023-01-03T04:56:18.125Z,3.00
2023-01-03T04:58:45.271Z,3.13
2023-01-03T05:01:12.609Z,3.60
2023-01-03T05:06:13.391Z,3.60
2023-01-03T05:08:47.165Z,3.90
2023-01-03T05:11:14.758Z,3.30
2023-01-03T05:13:41.848Z,2.75
2023-01-03T05:16:20.362Z,2.67
2023-01-03T05:18:54.605Z,2.90
2023-01-03T05:21:48.159Z,2.72
2023-01-03T05:24:34.192Z,2.75
2023-01-03T05:27:09.132Z,2.90
2023-01-03T05:29:37.006Z,2.88
2023-01-03T05:32:04.232Z,3.38
2023-01-03T05:34:38.133Z,3.40
2023-01-03T05:37:05.275Z,3.65
2023-01-03T05:39:39.132Z,4.55
2023-01-03T05:42:06.534Z,4.18
2023-01-03T05:44:34.588Z,3.70
2023-01-03T05:47:09.151Z,4.00
2023-01-03T05:49:36.273Z,3.80
2023-01-03T05:52:03.863Z,4.35
2023-01-03T05:54:37.150Z,4.95
2023-01-03T05:57:04.272Z,4.80
2023-01-03T05:59:31.353Z,4.45
2023-01-03T06:02:05.232Z,4.70
2023-01-03T06:04:32.519Z,4.53
2023-01-03T06:07:06.164Z,4.82
2023-01-03T06:09:33.256Z,4.90
2023-01-03T06:12:00.406Z,4.88
2023-01-03T06:14:34.117Z,4.47
2023-01-03T06:17:39.132Z,4.05
2023-01-03T06:20:13.248Z,4.75
2023-01-03T06:22:40.338Z,4.15
2023-01-03T06:25:07.518Z,4.38
2023-01-03T06:27:41.137Z,4.22
2023-01-03T06:30:08.586Z,4.50
2023-01-03T06:35:09.614Z,4.72
2023-01-03T06:40:10.217Z,4.88
2023-01-03T06:42:40.189Z,4.47
2023-01-03T06:45:33.156Z,5.07
2023-01-03T06:48:23.157Z,5.00
2023-01-03T06:51:16.229Z,4.90
2023-01-03T06:53:43.576Z,5.13
2023-01-03T06:56:11.661Z,4.60
2023-01-03T06:58:45.124Z,4.22
2023-01-03T07:01:13.827Z,4.22
2023-01-03T07:03:47.397Z,3.72
2023-01-03T07:06:14.569Z,3.92
2023-01-03T07:08:47.906Z,3.60
2023-01-03T07:11:22.267Z,2.90
2023-01-03T07:13:58.568Z,3.03
2023-01-03T07:16:40.175Z,2.88
2023-01-03T07:19:15.852Z,3.00
2023-01-03T07:21:50.150Z,3.08
2023-01-03T07:24:20.006Z,3.15
2023-01-03T07:26:47.199Z,2.90
2023-01-03T07:29:21.125Z,2.80
2023-01-03T07:31:48.414Z,2.78
2023-01-03T07:34:22.164Z,2.33
2023-01-03T07:36:49.257Z,2.40
2023-01-03T07:39:16.360Z,2.10
2023-01-03T07:42:09.126Z,2.20
2023-01-03T07:44:36.259Z,2.25
2023-01-03T07:47:10.137Z,2.20
2023-01-03T07:49:37.220Z,1.85
2023-01-03T07:52:11.208Z,1.92
2023-01-03T07:54:38.355Z,2.08
2023-01-03T07:57:05.432Z,2.15
2023-01-03T07:59:39.140Z,2.10
2023-01-03T08:02:06.804Z,3.10
2023-01-03T08:04:40.518Z,2.60
2023-01-03T08:07:07.677Z,2.55
2023-01-03T08:10:00.235Z,2.35
2023-01-03T08:12:46.181Z,2.60
2023-01-03T08:15:20.155Z,2.55
2023-01-03T08:17:54.183Z,3.13
2023-01-03T08:20:28.184Z,3.08
2023-01-03T08:23:02.200Z,3.72
2023-01-03T08:25:29.334Z,2.70
2023-01-03T08:27:59.905Z,2.45
2023-01-03T08:30:35.149Z,2.50
2023-01-03T08:33:03.430Z,2.35
2023-01-03T08:35:39.190Z,2.65
2023-01-03T08:38:07.856Z,2.40
2023-01-03T08:40:44.165Z,2.60
2023-01-03T08:43:18.140Z,2.22
2023-01-03T08:45:45.277Z,2.25
2023-01-03T08:48:19.202Z,2.03
2023-01-03T08:50:46.614Z,2.35
2023-01-03T08:53:13.721Z,2.50
2023-01-03T08:55:47.162Z,2.30
2023-01-03T08:58:14.249Z,2.40
2023-01-03T09:00:48.219Z,2.67
2023-01-03T09:03:15.529Z,2.30
2023-01-03T09:05:42.760Z,2.25
2023-01-03T09:08:16.158Z,2.65
2023-01-03T09:10:47.513Z,2.08
2023-01-03T09:13:21.175Z,2.30
2023-01-03T09:15:48.355Z,2.65
2023-01-03T09:18:28.175Z,2.20
2023-01-03T09:20:55.317Z,2.08
2023-01-03T09:23:22.433Z,2.15
2023-01-03T09:25:56.140Z,2.20
2023-01-03T09:28:23.307Z,2.33
2023-01-03T09:30:57.237Z,2.03
2023-01-03T09:33:24.388Z,2.75
2023-01-03T09:35:54.989Z,2.25
2023-01-03T09:38:29.168Z,1.85
2023-01-03T09:41:05.976Z,2.20
2023-01-03T09:43:50.157Z,2.10
2023-01-03T09:46:22.104Z,2.22
2023-01-03T09:48:56.175Z,2.45
2023-01-03T09:51:42.217Z,1.90
2023-01-03T09:54:39.166Z,2.28
2023-01-03T09:57:33.852Z,1.90
2023-01-03T10:00:26.168Z,2.10
2023-01-03T10:03:50.170Z,2.00
2023-01-03T10:06:36.462Z,1.70
2023-01-03T10:09:16.326Z,1.67
2023-01-03T10:12:16.314Z,1.48
2023-01-03T10:15:09.323Z,2.10
2023-01-03T10:17:56.153Z,1.63
2023-01-03T10:20:36.162Z,1.40
2023-01-03T10:23:11.216Z,1.38
2023-01-03T10:25:40.013Z,1.30
2023-01-03T10:28:27.158Z,1.45
2023-01-03T10:31:02.221Z,1.58
2023-01-03T10:33:42.202Z,1.70
2023-01-03T10:36:09.608Z,1.30
2023-01-03T10:38:51.578Z,1.55
2023-01-03T10:41:30.587Z,1.42
2023-01-03T10:44:05.293Z,1.48
2023-01-03T10:46:32.821Z,1.50
2023-01-03T10:49:28.433Z,1.55
2023-01-03T10:52:15.394Z,1.60
2023-01-03T10:54:55.302Z,1.45
2023-01-03T10:57:44.260Z,1.90
2023-01-03T11:00:28.256Z,1.30
2023-01-03T11:02:56.582Z,1.30
2023-01-03T11:05:25.166Z,1.30
2023-01-03T11:08:16.172Z,1.60
2023-01-03T11:11:04.230Z,1.48
2023-01-03T11:13:41.225Z,1.45
2023-01-03T11:16:22.248Z,1.90
2023-01-03T11:19:06.330Z,1.77
2023-01-03T11:21:49.207Z,1.70
2023-01-03T11:24:22.301Z,1.98
2023-01-03T11:26:59.171Z,2.28
2023-01-03T11:29:34.674Z,1.90
2023-01-03T11:32:17.376Z,1.88
2023-01-03T11:38:14.224Z,2.20
2023-01-03T11:41:00.052Z,2.10
2023-01-03T11:43:49.333Z,1.80
2023-01-03T11:46:28.797Z,1.90
2023-01-03T11:49:21.204Z,1.90
2023-01-03T11:51:51.199Z,1.40
2023-01-03T11:54:46.532Z,1.55
2023-01-03T11:57:28.643Z,1.52
2023-01-03T12:00:20.219Z,1.70
2023-01-03T12:03:17.109Z,1.83
2023-01-03T12:05:55.187Z,1.75
2023-01-03T12:08:33.378Z,1.90
2023-01-03T12:11:11.447Z,1.70
2023-01-03T12:16:18.360Z,1.60
2023-01-03T12:19:11.706Z,1.73
2023-01-03T12:21:49.236Z,1.80
2023-01-03T12:24:18.803Z,1.85
2023-01-03T12:26:58.222Z,2.20
2023-01-03T12:29:27.509Z,2.10
2023-01-03T12:31:57.996Z,2.20
2023-01-03T12:34:50.254Z,2.05
2023-01-03T12:37:17.384Z,1.98
2023-01-03T12:40:10.183Z,2.25
2023-01-03T12:42:47.356Z,2.30
2023-01-03T12:45:40.179Z,2.17
2023-01-03T12:48:07.390Z,1.80
2023-01-03T12:50:44.430Z,2.10
2023-01-03T12:53:11.551Z,6.75
2023-01-03T12:55:48.204Z,1.90
2023-01-03T12:58:26.299Z,1.90
2023-01-03T13:03:35.630Z,1.92
2023-01-03T13:06:12.188Z,2.10
2023-01-03T13:08:42.044Z,1.98
2023-01-03T13:11:22.240Z,2.45
2023-01-03T13:13:57.453Z,1.98
2023-01-03T13:16:38.305Z,1.77
2023-01-03T13:19:24.234Z,1.90
2023-01-03T13:22:01.194Z,3.08
2023-01-03T13:24:45.292Z,2.50
2023-01-03T13:27:28.192Z,2.83
2023-01-03T13:29:58.450Z,2.38
2023-01-03T13:32:38.556Z,2.38
2023-01-03T13:35:05.735Z,2.40
2023-01-03T13:37:32.976Z,2.17
2023-01-03T13:40:18.239Z,1.95
2023-01-03T13:42:45.716Z,2.20
2023-01-03T13:47:52.273Z,2.55
2023-01-03T13:50:27.448Z,2.03
2023-01-03T13:53:24.189Z,2.25
2023-01-03T13:56:27.228Z,2.45
2023-01-03T13:59:11.237Z,2.70
2023-01-03T14:01:52.315Z,2.30
2023-01-03T14:04:28.675Z,2.33
2023-01-03T14:07:02.229Z,2.10
2023-01-03T14:09:55.660Z,2.17
2023-01-03T14:12:48.198Z,2.55
2023-01-03T14:15:25.467Z,2.17
2023-01-03T14:18:09.196Z,2.65
2023-01-03T14:20:45.890Z,2.40
2023-01-03T14:23:58.460Z,2.53
2023-01-03T14:26:14.522Z,2.90
2023-01-03T14:28:48.229Z,2.50
2023-01-03T14:31:23.671Z,2.25
2023-01-03T14:34:00.254Z,1.67
2023-01-03T14:36:28.555Z,1.63
2023-01-03T14:38:57.049Z,1.60
2023-01-03T14:41:33.266Z,2.10
2023-01-03T14:44:07.148Z,1.98
2023-01-03T14:46:42.422Z,2.60
2023-01-03T14:49:21.029Z,2.30
2023-01-03T14:51:55.632Z,2.30
2023-01-03T14:54:22.884Z,2.92
2023-01-03T14:56:49.989Z,2.80
2023-01-03T14:59:24.395Z,2.60
2023-01-03T15:01:51.991Z,5.38
2023-01-03T15:04:19.499Z,19.15
2023-01-03T15:12:03.304Z,2.83
2023-01-03T15:14:32.029Z,1.95
2023-01-03T15:17:13.210Z,3.15
2023-01-03T15:19:48.285Z,2.53
2023-01-03T15:22:30.207Z,3.90
2023-01-03T15:25:05.422Z,3.20
2023-01-03T15:27:39.230Z,2.58
2023-01-03T15:30:14.861Z,1.98
2023-01-03T15:33:07.231Z,3.35
2023-01-03T15:35:43.799Z,2.13
2023-01-03T15:38:26.230Z,2.65
2023-01-03T15:40:53.363Z,3.80
2023-01-03T15:43:30.229Z,3.92
2023-01-03T15:46:00.530Z,3.25
2023-01-03T15:48:34.220Z,2.42
2023-01-03T15:51:01.809Z,3.40
2023-01-03T15:53:39.464Z,3.80
2023-01-03T15:56:13.333Z,3.63
2023-01-03T15:58:47.388Z,3.53
2023-01-03T16:01:14.741Z,3.40
2023-01-03T16:06:15.250Z,2.85
2023-01-03T16:08:42.834Z,2.72
2023-01-03T16:11:20.754Z,3.97
2023-01-03T16:14:07.529Z,3.50
2023-01-03T16:16:43.434Z,3.45
2023-01-03T16:19:24.295Z,3.45
2023-01-03T16:22:33.293Z,3.05
2023-01-03T16:24:46.344Z,3.25
2023-01-03T16:27:22.339Z,3.38
2023-01-03T16:29:49.642Z,3.10
2023-01-03T16:32:21.300Z,3.00
2023-01-03T16:34:55.232Z,2.65
2023-01-03T16:37:22.316Z,3.08
2023-01-03T16:39:56.294Z,3.00
2023-01-03T16:42:30.375Z,3.00
2023-01-03T16:45:04.281Z,2.80
2023-01-03T16:47:33.217Z,2.58
2023-01-03T16:50:01.934Z,2.75
2023-01-03T16:52:39.267Z,2.78
2023-01-03T16:55:22.256Z,2.65
2023-01-03T16:57:56.254Z,2.50
2023-01-03T17:00:31.282Z,2.30
2023-01-03T17:03:00.197Z,2.80
2023-01-03T17:05:35.294Z,2.92
2023-01-03T17:08:05.100Z,3.17
2023-01-03T17:10:42.346Z,3.40
2023-01-03T17:13:20.241Z,3.50
2023-01-03T17:15:54.669Z,3.47
2023-01-03T17:18:29.618Z,3.22
2023-01-03T17:21:07.478Z,3.00
2023-01-03T17:23:36.801Z,2.92
2023-01-03T17:26:04.013Z,3.60
2023-01-03T17:28:38.265Z,3.17
2023-01-03T17:31:05.504Z,3.13
2023-01-03T17:33:39.275Z,2.90
2023-01-03T17:36:09.360Z,3.08
2023-01-03T17:38:36.491Z,3.00
2023-01-03T17:41:10.239Z,2.67
2023-01-03T17:43:37.319Z,2.90
2023-01-03T17:46:32.276Z,3.28
2023-01-03T17:49:17.990Z,2.83
2023-01-03T17:51:52.286Z,2.97
2023-01-03T17:54:20.444Z,3.53
2023-01-03T17:56:47.554Z,4.25
2023-01-03T17:59:21.264Z,4.35
2023-01-03T18:01:52.118Z,2.88
2023-01-03T18:04:38.484Z,3.60
2023-01-03T18:07:23.811Z,2.55
2023-01-03T18:09:58.304Z,3.30
2023-01-03T18:12:26.771Z,3.08
2023-01-03T18:14:53.877Z,2.55
2023-01-03T18:17:36.263Z,2.30
2023-01-03T18:20:17.282Z,3.78
2023-01-03T18:22:45.392Z,2.33
2023-01-03T18:25:27.295Z,3.22
2023-01-03T18:27:56.102Z,3.05
2023-01-03T18:30:23.186Z,2.60
2023-01-03T18:32:57.273Z,3.35
2023-01-03T18:35:32.425Z,4.63
2023-01-03T18:38:08.402Z,4.20
2023-01-03T18:40:35.788Z,5.30
2023-01-03T18:48:13.943Z,3.13
2023-01-03T18:50:51.863Z,2.90
2023-01-03T18:53:23.832Z,3.38
2023-01-03T18:55:57.387Z,3.50
2023-01-03T18:58:31.733Z,3.33
2023-01-03T19:01:05.336Z,4.50
2023-01-03T19:03:33.434Z,4.95
2023-01-03T19:06:08.265Z,3.20
2023-01-03T19:08:35.532Z,3.08
2023-01-03T19:11:12.413Z,3.25
2023-01-03T19:13:54.837Z,3.92
2023-01-03T19:16:34.419Z,4.32
2023-01-03T19:19:22.278Z,4.40
2023-01-03T19:21:56.418Z,3.27
2023-01-03T19:24:25.108Z,3.60
2023-01-03T19:27:03.313Z,3.63
2023-01-03T19:29:36.906Z,4.00
2023-01-03T19:32:11.394Z,4.15
2023-01-03T19:34:38.496Z,4.55
2023-01-03T19:37:05.655Z,3.85
2023-01-03T19:39:39.296Z,4.20
2023-01-03T19:42:33.326Z,4.50
2023-01-03T19:45:01.215Z,3.83
2023-01-03T19:47:28.379Z,3.50
2023-01-03T19:50:06.327Z,4.05
2023-01-03T19:52:38.173Z,4.05
2023-01-03T19:55:12.318Z,3.55
2023-01-03T19:57:40.120Z,3.88
2023-01-03T20:00:07.631Z,3.85
2023-01-03T20:05:15.707Z,3.40
2023-01-03T20:07:49.276Z,3.65
2023-01-03T20:10:27.265Z,4.13
2023-01-03T20:12:55.821Z,3.67
2023-01-03T20:15:29.288Z,3.63
2023-01-03T20:17:57.047Z,4.07
2023-01-03T20:20:40.328Z,3.92
2023-01-03T20:23:13.208Z,4.70
2023-01-03T20:25:47.340Z,4.93
2023-01-03T20:28:17.088Z,4.82
2023-01-03T20:30:44.183Z,5.38
2023-01-03T20:33:18.302Z,4.95
2023-01-03T20:38:39.306Z,4.53
2023-01-03T20:41:06.474Z,6.00
2023-01-03T20:43:40.285Z,6.18
2023-01-03T20:46:11.314Z,6.10
2023-01-03T20:48:38.510Z,6.60
2023-01-03T20:51:12.314Z,6.03
2023-01-03T20:53:42.842Z,6.13
2023-01-03T20:56:20.279Z,6.40
2023-01-03T20:58:47.364Z,5.75
2023-01-03T21:01:14.844Z,4.78
2023-01-03T21:03:48.440Z,5.28
2023-01-03T21:06:19.667Z,6.65
2023-01-03T21:09:03.265Z,5.70
2023-01-03T21:11:32.221Z,5.50
2023-01-03T21:14:07.341Z,5.13
2023-01-03T21:16:46.657Z,4.13
2023-01-03T21:19:28.312Z,4.38
2023-01-03T21:22:02.258Z,4.70
2023-01-03T21:24:39.205Z,4.32
2023-01-03T21:27:07.294Z,4.15
2023-01-03T21:29:34.439Z,3.90
2023-01-03T21:32:08.350Z,4.60
2023-01-03T21:34:35.516Z,4.50
2023-01-03T21:37:09.310Z,4.88
2023-01-03T21:39:36.375Z,4.63
2023-01-03T21:42:37.335Z,4.70
2023-01-03T21:45:04.743Z,5.07
2023-01-03T21:47:31.818Z,5.07
2023-01-03T21:50:05.322Z,5.18
2023-01-03T21:52:32.436Z,4.93
2023-01-03T21:55:06.291Z,5.15
2023-01-03T21:57:34.141Z,5.25
2023-01-03T22:00:08.435Z,5.45
2023-01-03T22:02:59.717Z,5.07
2023-01-03T22:05:34.325Z,5.40
2023-01-03T22:08:02.471Z,5.72
2023-01-03T22:10:30.264Z,6.15
2023-01-03T22:13:12.306Z,5.88
2023-01-03T22:15:39.876Z,5.70
2023-01-03T22:20:49.340Z,5.10
2023-01-03T22:23:25.316Z,5.80
2023-01-03T22:25:52.388Z,6.15
2023-01-03T22:28:26.449Z,5.80
2023-01-03T22:30:53.681Z,6.30
2023-01-03T22:33:20.766Z,5.53
2023-01-03T22:35:54.461Z,5.90
2023-01-03T22:38:21.727Z,6.10
2023-01-03T22:40:55.755Z,6.13
2023-01-03T22:43:22.848Z,6.40
2023-01-03T22:45:49.948Z,5.95
2023-01-03T22:48:23.403Z,6.30
2023-01-03T22:50:50.533Z,7.25
2023-01-03T22:53:24.322Z,6.53
2023-01-03T22:55:51.408Z,7.90
2023-01-03T22:58:18.502Z,6.30
2023-01-03T23:00:53.373Z,6.97
2023-01-03T23:03:20.554Z,6.10
2023-01-03T23:05:54.472Z,6.70
2023-01-03T23:08:21.557Z,6.88
2023-01-03T23:10:48.716Z,6.70
2023-01-03T23:13:22.459Z,6.47
2023-01-03T23:15:49.569Z,6.63
2023-01-03T23:18:16.660Z,6.30
2023-01-03T23:20:55.733Z,6.88
2023-01-03T23:23:29.317Z,7.93
2023-01-03T23:26:03.310Z,7.45
2023-01-03T23:28:30.594Z,8.30
2023-01-03T23:31:04.358Z,8.15
2023-01-03T23:33:31.467Z,7.97
2023-01-03T23:36:03.751Z,7.82
2023-01-03T23:38:37.298Z,7.97
2023-01-03T23:41:08.229Z,7.32
2023-01-03T23:43:42.375Z,7.65
2023-01-03T23:46:14.328Z,8.55
2023-01-03T23:48:41.468Z,8.85
2023-01-03T23:51:16.293Z,8.15
2023-01-03T23:53:44.040Z,7.88
2023-01-03T23:56:22.483Z,9.73
2023-01-03T23:58:49.869Z,9.13
